sensor_id;sensor_type;location;lat;lon;timestamp;P1;P2;P0
81989;PMS5003;71485;51.638;-0.182;2024-03-23T00:51:54;1;1;
81989;PMS5003;71485;51.638;-0.182;2024-03-23T00:54:20;2;2;
81989;PMS5003;71485;51.638;-0.182;2024-03-23T00:56:45;1;1;
81989;PMS5003;71485;51.638;-0.182;2024-03-23T00:59:10;0;0;
81989;PMS5003;71485;51.638;-0.182;2024-03-23T01:01:36;2;2;
81989;PMS5003;71485;51.638;-0.182;2024-03-23T01:04:02;0;0;
81989;PMS5003;71485;51.638;-0.182;2024-03-23T01:06:28;1;1;
81989;PMS5003;71485;51.638;-0.182;2024-03-23T01:08:53;0;0;
81989;PMS5003;71485;51.638;-0.182;2024-03-23T01:11:19;3;1;
81989;PMS5003;71485;51.638;-0.182;2024-03-23T01:13:44;1;1;
81989;PMS5003;71485;51.638;-0.182;2024-03-23T01:16:10;1;1;
81989;PMS5003;71485;51.638;-0.182;2024-03-23T01:18:35;2;2;
81989;PMS5003;71485;51.638;-0.182;2024-03-23T01:21:02;1;1;
81989;PMS5003;71485;51.638;-0.182;2024-03-23T01:23:27;1;1;
81989;PMS5003;71485;51.638;-0.182;2024-03-23T01:25:53;2;2;
81989;PMS5003;71485;51.638;-0.182;2024-03-23T01:28:18;0;0;
81989;PMS5003;71485;51.638;-0.182;2024-03-23T01:30:43;2;1;
81989;PMS5003;71485;51.638;-0.182;2024-03-23T01:33:09;1;1;
81989;PMS5003;71485;51.638;-0.182;2024-03-23T01:35:40;0;0;
81989;PMS5003;71485;51.638;-0.182;2024-03-23T01:38:00;1;1;
81989;PMS5003;71485;51.638;-0.182;2024-03-23T01:40:26;1;1;
81989;PMS5003;71485;51.638;-0.182;2024-03-23T01:42:55;1;1;
81989;PMS5003;71485;51.638;-0.182;2024-03-23T01:45:17;1;1;
81989;PMS5003;71485;51.638;-0.182;2024-03-23T01:47:43;1;0;
81989;PMS5003;71485;51.638;-0.182;2024-03-23T01:50:13;1;1;
81989;PMS5003;71485;51.638;-0.182;2024-03-23T01:52:34;0;0;
81989;PMS5003;71485;51.638;-0.182;2024-03-23T01:55:00;1;1;
81989;PMS5003;71485;51.638;-0.182;2024-03-23T01:57:25;1;1;
81989;PMS5003;71485;51.638;-0.182;2024-03-23T01:59:50;0;0;
81989;PMS5003;71485;51.638;-0.182;2024-03-23T02:02:16;0;0;
81989;PMS5003;71485;51.638;-0.182;2024-03-23T02:04:42;0;0;
81989;PMS5003;71485;51.638;-0.182;2024-03-23T02:07:07;0;0;
81989;PMS5003;71485;51.638;-0.182;2024-03-23T02:09:33;1;1;
81989;PMS5003;71485;51.638;-0.182;2024-03-23T02:12:01;0;0;
81989;PMS5003;71485;51.638;-0.182;2024-03-23T02:14:24;0;0;
81989;PMS5003;71485;51.638;-0.182;2024-03-23T02:16:50;0;0;
81989;PMS5003;71485;51.638;-0.182;2024-03-23T02:19:15;0;0;
81989;PMS5003;71485;51.638;-0.182;2024-03-23T02:21:41;0;0;
81989;PMS5003;71485;51.638;-0.182;2024-03-23T02:24:06;1;1;
81989;PMS5003;71485;51.638;-0.182;2024-03-23T02:26:33;0;0;
81989;PMS5003;71485;51.638;-0.182;2024-03-23T02:28:58;1;1;
81989;PMS5003;71485;51.638;-0.182;2024-03-23T02:31:23;1;0;
81989;PMS5003;71485;51.638;-0.182;2024-03-23T02:33:49;0;0;
81989;PMS5003;71485;51.638;-0.182;2024-03-23T02:36:15;0;0;
81989;PMS5003;71485;51.638;-0.182;2024-03-23T02:38:44;0;0;
81989;PMS5003;71485;51.638;-0.182;2024-03-23T02:41:06;1;1;
81989;PMS5003;71485;51.638;-0.182;2024-03-23T02:43:31;2;1;
81989;PMS5003;71485;51.638;-0.182;2024-03-23T02:45:57;1;1;
81989;PMS5003;71485;51.638;-0.182;2024-03-23T02:48:22;1;1;
81989;PMS5003;71485;51.638;-0.182;2024-03-23T02:50:49;2;1;
81989;PMS5003;71485;51.638;-0.182;2024-03-23T02:53:14;1;1;
81989;PMS5003;71485;51.638;-0.182;2024-03-23T02:55:39;1;1;
81989;PMS5003;71485;51.638;-0.182;2024-03-23T02:58:05;1;1;
81989;PMS5003;71485;51.638;-0.182;2024-03-23T03:00:31;0;0;
81989;PMS5003;71485;51.638;-0.182;2024-03-23T03:02:56;0;0;
81989;PMS5003;71485;51.638;-0.182;2024-03-23T03:05:22;0;0;
81989;PMS5003;71485;51.638;-0.182;2024-03-23T03:07:47;1;1;
81989;PMS5003;71485;51.638;-0.182;2024-03-23T03:10:13;0;0;
81989;PMS5003;71485;51.638;-0.182;2024-03-23T03:12:38;0;0;
81989;PMS5003;71485;51.638;-0.182;2024-03-23T03:15:04;0;0;
81989;PMS5003;71485;51.638;-0.182;2024-03-23T03:17:30;1;1;
81989;PMS5003;71485;51.638;-0.182;2024-03-23T03:19:55;0;0;
81989;PMS5003;71485;51.638;-0.182;2024-03-23T03:22:22;1;0;
81989;PMS5003;71485;51.638;-0.182;2024-03-23T03:24:47;1;1;
81989;PMS5003;71485;51.638;-0.182;2024-03-23T03:27:12;1;1;
81989;PMS5003;71485;51.638;-0.182;2024-03-23T03:29:41;1;1;
81989;PMS5003;71485;51.638;-0.182;2024-03-23T03:32:03;1;0;
81989;PMS5003;71485;51.638;-0.182;2024-03-23T03:34:29;0;0;
81989;PMS5003;71485;51.638;-0.182;2024-03-23T03:36:55;1;1;
81989;PMS5003;71485;51.638;-0.182;2024-03-23T03:39:23;0;0;
81989;PMS5003;71485;51.638;-0.182;2024-03-23T03:41:45;1;1;
81989;PMS5003;71485;51.638;-0.182;2024-03-23T03:44:11;0;0;
81989;PMS5003;71485;51.638;-0.182;2024-03-23T03:46:37;0;0;
81989;PMS5003;71485;51.638;-0.182;2024-03-23T03:49:02;0;0;
81989;PMS5003;71485;51.638;-0.182;2024-03-23T03:51:29;1;1;
81989;PMS5003;71485;51.638;-0.182;2024-03-23T03:53:54;0;0;
81989;PMS5003;71485;51.638;-0.182;2024-03-23T03:56:19;0;0;
81989;PMS5003;71485;51.638;-0.182;2024-03-23T03:58:45;1;1;
81989;PMS5003;71485;51.638;-0.182;2024-03-23T04:01:10;0;0;
81989;PMS5003;71485;51.638;-0.182;2024-03-23T04:03:36;0;0;
81989;PMS5003;71485;51.638;-0.182;2024-03-23T04:06:02;0;0;
81989;PMS5003;71485;51.638;-0.182;2024-03-23T04:08:27;0;0;
81989;PMS5003;71485;51.638;-0.182;2024-03-23T04:10:53;2;0;
81989;PMS5003;71485;51.638;-0.182;2024-03-23T04:13:18;1;1;
81989;PMS5003;71485;51.638;-0.182;2024-03-23T04:15:44;1;0;
81989;PMS5003;71485;51.638;-0.182;2024-03-23T04:18:09;1;0;
81989;PMS5003;71485;51.638;-0.182;2024-03-23T04:20:35;0;0;
81989;PMS5003;71485;51.638;-0.182;2024-03-23T04:23:01;1;1;
81989;PMS5003;71485;51.638;-0.182;2024-03-23T04:25:27;0;0;
81989;PMS5003;71485;51.638;-0.182;2024-03-23T04:27:52;1;1;
81989;PMS5003;71485;51.638;-0.182;2024-03-23T04:30:17;0;0;
81989;PMS5003;71485;51.638;-0.182;2024-03-23T04:32:43;2;0;
81989;PMS5003;71485;51.638;-0.182;2024-03-23T04:35:09;0;0;
81989;PMS5003;71485;51.638;-0.182;2024-03-23T04:37:35;1;0;
81989;PMS5003;71485;51.638;-0.182;2024-03-23T04:40:01;2;1;
81989;PMS5003;71485;51.638;-0.182;2024-03-23T04:42:25;1;0;
81989;PMS5003;71485;51.638;-0.182;2024-03-23T04:44:50;0;0;
81989;PMS5003;71485;51.638;-0.182;2024-03-23T04:47:16;1;1;
81989;PMS5003;71485;51.638;-0.182;2024-03-23T04:49:42;0;0;
81989;PMS5003;71485;51.638;-0.182;2024-03-23T04:52:08;0;0;
81989;PMS5003;71485;51.638;-0.182;2024-03-23T04:54:34;0;0;
81989;PMS5003;71485;51.638;-0.182;2024-03-23T04:56:59;1;1;
81989;PMS5003;71485;51.638;-0.182;2024-03-23T04:59:24;0;0;
81989;PMS5003;71485;51.638;-0.182;2024-03-23T05:01:50;1;1;
81989;PMS5003;71485;51.638;-0.182;2024-03-23T05:04:16;0;0;
81989;PMS5003;71485;51.638;-0.182;2024-03-23T05:06:41;0;0;
81989;PMS5003;71485;51.638;-0.182;2024-03-23T05:09:06;1;1;
81989;PMS5003;71485;51.638;-0.182;2024-03-23T05:11:33;0;0;
81989;PMS5003;71485;51.638;-0.182;2024-03-23T05:13:58;1;0;
81989;PMS5003;71485;51.638;-0.182;2024-03-23T05:16:23;1;1;
81989;PMS5003;71485;51.638;-0.182;2024-03-23T05:18:49;1;1;
81989;PMS5003;71485;51.638;-0.182;2024-03-23T05:21:15;0;0;
81989;PMS5003;71485;51.638;-0.182;2024-03-23T05:23:40;0;0;
81989;PMS5003;71485;51.638;-0.182;2024-03-23T05:26:07;1;1;
81989;PMS5003;71485;51.638;-0.182;2024-03-23T05:28:32;0;0;
81989;PMS5003;71485;51.638;-0.182;2024-03-23T05:30:58;1;1;
81989;PMS5003;71485;51.638;-0.182;2024-03-23T05:33:23;0;0;
81989;PMS5003;71485;51.638;-0.182;2024-03-23T05:38:19;0;0;
81989;PMS5003;71485;51.638;-0.182;2024-03-23T05:40:39;1;1;
81989;PMS5003;71485;51.638;-0.182;2024-03-23T05:43:05;0;0;
81989;PMS5003;71485;51.638;-0.182;2024-03-23T05:45:30;0;0;
81989;PMS5003;71485;51.638;-0.182;2024-03-23T05:47:56;1;1;
81989;PMS5003;71485;51.638;-0.182;2024-03-23T05:50:22;1;1;
81989;PMS5003;71485;51.638;-0.182;2024-03-23T05:52:52;0;0;
81989;PMS5003;71485;51.638;-0.182;2024-03-23T05:55:13;1;1;
81989;PMS5003;71485;51.638;-0.182;2024-03-23T05:57:38;1;1;
81989;PMS5003;71485;51.638;-0.182;2024-03-23T06:00:05;0;0;
81989;PMS5003;71485;51.638;-0.182;2024-03-23T06:02:30;1;1;
81989;PMS5003;71485;51.638;-0.182;2024-03-23T06:04:56;0;0;
81989;PMS5003;71485;51.638;-0.182;2024-03-23T06:07:21;0;0;
81989;PMS5003;71485;51.638;-0.182;2024-03-23T06:09:47;0;0;
81989;PMS5003;71485;51.638;-0.182;2024-03-23T06:12:13;0;0;
81989;PMS5003;71485;51.638;-0.182;2024-03-23T06:14:38;0;0;
81989;PMS5003;71485;51.638;-0.182;2024-03-23T06:17:03;1;1;
81989;PMS5003;71485;51.638;-0.182;2024-03-23T06:19:29;0;0;
81989;PMS5003;71485;51.638;-0.182;2024-03-23T06:21:55;1;1;
81989;PMS5003;71485;51.638;-0.182;2024-03-23T06:24:24;0;0;
81989;PMS5003;71485;51.638;-0.182;2024-03-23T06:26:51;1;1;
81989;PMS5003;71485;51.638;-0.182;2024-03-23T06:29:12;1;0;
81989;PMS5003;71485;51.638;-0.182;2024-03-23T06:31:37;0;0;
81989;PMS5003;71485;51.638;-0.182;2024-03-23T06:34:02;0;0;
81989;PMS5003;71485;51.638;-0.182;2024-03-23T06:36:29;0;0;
81989;PMS5003;71485;51.638;-0.182;2024-03-23T06:38:54;1;0;
81989;PMS5003;71485;51.638;-0.182;2024-03-23T06:41:19;1;1;
81989;PMS5003;71485;51.638;-0.182;2024-03-23T06:43:45;0;0;
81989;PMS5003;71485;51.638;-0.182;2024-03-23T06:46:10;1;0;
81989;PMS5003;71485;51.638;-0.182;2024-03-23T06:48:36;0;0;
81989;PMS5003;71485;51.638;-0.182;2024-03-23T06:51:02;0;0;
81989;PMS5003;71485;51.638;-0.182;2024-03-23T06:53:28;1;1;
81989;PMS5003;71485;51.638;-0.182;2024-03-23T06:55:53;0;0;
81989;PMS5003;71485;51.638;-0.182;2024-03-23T06:58:19;1;1;
81989;PMS5003;71485;51.638;-0.182;2024-03-23T07:00:44;0;0;
81989;PMS5003;71485;51.638;-0.182;2024-03-23T07:03:09;1;1;
81989;PMS5003;71485;51.638;-0.182;2024-03-23T07:05:36;2;2;
81989;PMS5003;71485;51.638;-0.182;2024-03-23T07:08:01;6;6;
81989;PMS5003;71485;51.638;-0.182;2024-03-23T07:10:27;7;6;
81989;PMS5003;71485;51.638;-0.182;2024-03-23T07:12:52;12;11;
81989;PMS5003;71485;51.638;-0.182;2024-03-23T07:15:18;13;13;
81989;PMS5003;71485;51.638;-0.182;2024-03-23T07:17:46;18;17;
81989;PMS5003;71485;51.638;-0.182;2024-03-23T07:20:09;21;20;
81989;PMS5003;71485;51.638;-0.182;2024-03-23T07:22:34;20;20;
81989;PMS5003;71485;51.638;-0.182;2024-03-23T07:25:00;25;20;
81989;PMS5003;71485;51.638;-0.182;2024-03-23T07:27:26;17;15;
81989;PMS5003;71485;51.638;-0.182;2024-03-23T07:29:50;15;15;
81989;PMS5003;71485;51.638;-0.182;2024-03-23T07:32:17;15;14;
81989;PMS5003;71485;51.638;-0.182;2024-03-23T07:34:41;13;12;
81989;PMS5003;71485;51.638;-0.182;2024-03-23T07:37:07;14;14;
81989;PMS5003;71485;51.638;-0.182;2024-03-23T07:39:33;14;13;
81989;PMS5003;71485;51.638;-0.182;2024-03-23T07:41:58;11;10;
81989;PMS5003;71485;51.638;-0.182;2024-03-23T07:44:23;11;11;
81989;PMS5003;71485;51.638;-0.182;2024-03-23T07:46:50;14;12;
81989;PMS5003;71485;51.638;-0.182;2024-03-23T07:49:14;11;11;
81989;PMS5003;71485;51.638;-0.182;2024-03-23T07:51:40;9;9;
81989;PMS5003;71485;51.638;-0.182;2024-03-23T07:54:06;10;9;
81989;PMS5003;71485;51.638;-0.182;2024-03-23T07:56:31;7;7;
81989;PMS5003;71485;51.638;-0.182;2024-03-23T07:58:56;11;11;
81989;PMS5003;71485;51.638;-0.182;2024-03-23T08:01:22;10;10;
81989;PMS5003;71485;51.638;-0.182;2024-03-23T08:03:49;10;10;
81989;PMS5003;71485;51.638;-0.182;2024-03-23T08:06:14;8;8;
81989;PMS5003;71485;51.638;-0.182;2024-03-23T08:08:39;8;8;
81989;PMS5003;71485;51.638;-0.182;2024-03-23T08:11:05;8;8;
81989;PMS5003;71485;51.638;-0.182;2024-03-23T08:13:30;8;8;
81989;PMS5003;71485;51.638;-0.182;2024-03-23T08:15:57;6;6;
81989;PMS5003;71485;51.638;-0.182;2024-03-23T08:18:22;11;10;
81989;PMS5003;71485;51.638;-0.182;2024-03-23T08:20:46;9;9;
81989;PMS5003;71485;51.638;-0.182;2024-03-23T08:23:12;14;13;
81989;PMS5003;71485;51.638;-0.182;2024-03-23T08:25:38;14;14;
81989;PMS5003;71485;51.638;-0.182;2024-03-23T08:28:04;12;11;
81989;PMS5003;71485;51.638;-0.182;2024-03-23T08:30:29;11;10;
81989;PMS5003;71485;51.638;-0.182;2024-03-23T08:32:54;15;14;
81989;PMS5003;71485;51.638;-0.182;2024-03-23T08:35:20;11;10;
81989;PMS5003;71485;51.638;-0.182;2024-03-23T08:37:45;11;10;
81989;PMS5003;71485;51.638;-0.182;2024-03-23T08:40:12;13;11;
81989;PMS5003;71485;51.638;-0.182;2024-03-23T08:42:37;8;7;
81989;PMS5003;71485;51.638;-0.182;2024-03-23T08:45:02;8;8;
81989;PMS5003;71485;51.638;-0.182;2024-03-23T08:47:27;9;8;
81989;PMS5003;71485;51.638;-0.182;2024-03-23T08:49:54;7;7;
81989;PMS5003;71485;51.638;-0.182;2024-03-23T08:52:19;10;8;
81989;PMS5003;71485;51.638;-0.182;2024-03-23T08:54:45;12;10;
81989;PMS5003;71485;51.638;-0.182;2024-03-23T08:57:10;7;7;
81989;PMS5003;71485;51.638;-0.182;2024-03-23T08:59:37;5;5;
81989;PMS5003;71485;51.638;-0.182;2024-03-23T09:02:01;10;9;
81989;PMS5003;71485;51.638;-0.182;2024-03-23T09:04:27;9;7;
81989;PMS5003;71485;51.638;-0.182;2024-03-23T09:06:52;7;6;
81989;PMS5003;71485;51.638;-0.182;2024-03-23T09:09:17;9;8;
81989;PMS5003;71485;51.638;-0.182;2024-03-23T09:11:44;10;8;
81989;PMS5003;71485;51.638;-0.182;2024-03-23T09:14:08;4;4;
81989;PMS5003;71485;51.638;-0.182;2024-03-23T09:16:34;6;5;
81989;PMS5003;71485;51.638;-0.182;2024-03-23T09:19:00;6;6;
81989;PMS5003;71485;51.638;-0.182;2024-03-23T09:21:25;7;6;
81989;PMS5003;71485;51.638;-0.182;2024-03-23T09:23:51;2;2;
81989;PMS5003;71485;51.638;-0.182;2024-03-23T09:26:17;4;4;
81989;PMS5003;71485;51.638;-0.182;2024-03-23T09:28:43;5;4;
81989;PMS5003;71485;51.638;-0.182;2024-03-23T09:31:08;7;6;
81989;PMS5003;71485;51.638;-0.182;2024-03-23T09:33:33;3;2;
81989;PMS5003;71485;51.638;-0.182;2024-03-23T09:36:02;4;4;
81989;PMS5003;71485;51.638;-0.182;2024-03-23T09:38:24;4;3;
81989;PMS5003;71485;51.638;-0.182;2024-03-23T09:40:51;4;4;
81989;PMS5003;71485;51.638;-0.182;2024-03-23T09:43:15;2;2;
81989;PMS5003;71485;51.638;-0.182;2024-03-23T09:45:41;5;4;
81989;PMS5003;71485;51.638;-0.182;2024-03-23T09:48:06;2;2;
81989;PMS5003;71485;51.638;-0.182;2024-03-23T09:50:32;2;2;
81989;PMS5003;71485;51.638;-0.182;2024-03-23T09:52:58;5;4;
81989;PMS5003;71485;51.638;-0.182;2024-03-23T09:55:23;3;3;
81989;PMS5003;71485;51.638;-0.182;2024-03-23T09:57:48;3;3;
81989;PMS5003;71485;51.638;-0.182;2024-03-23T10:00:14;2;2;
81989;PMS5003;71485;51.638;-0.182;2024-03-23T10:02:40;3;2;
81989;PMS5003;71485;51.638;-0.182;2024-03-23T10:07:30;2;2;
81989;PMS5003;71485;51.638;-0.182;2024-03-23T10:09:56;1;1;
81989;PMS5003;71485;51.638;-0.182;2024-03-23T10:12:23;2;2;
81989;PMS5003;71485;51.638;-0.182;2024-03-23T10:14:47;2;2;
81989;PMS5003;71485;51.638;-0.182;2024-03-23T10:17:14;2;2;
81989;PMS5003;71485;51.638;-0.182;2024-03-23T10:19:39;2;1;
81989;PMS5003;71485;51.638;-0.182;2024-03-23T10:22:04;3;3;
81989;PMS5003;71485;51.638;-0.182;2024-03-23T10:24:30;2;2;
81989;PMS5003;71485;51.638;-0.182;2024-03-23T10:26:56;3;3;
81989;PMS5003;71485;51.638;-0.182;2024-03-23T10:29:21;2;2;
81989;PMS5003;71485;51.638;-0.182;2024-03-23T10:31:47;3;3;
81989;PMS5003;71485;51.638;-0.182;2024-03-23T10:34:12;0;0;
81989;PMS5003;71485;51.638;-0.182;2024-03-23T10:36:37;1;1;
81989;PMS5003;71485;51.638;-0.182;2024-03-23T10:39:03;2;1;
81989;PMS5003;71485;51.638;-0.182;2024-03-23T10:41:28;2;1;
81989;PMS5003;71485;51.638;-0.182;2024-03-23T10:43:54;2;1;
81989;PMS5003;71485;51.638;-0.182;2024-03-23T10:46:20;2;1;
81989;PMS5003;71485;51.638;-0.182;2024-03-23T10:48:45;1;1;
81989;PMS5003;71485;51.638;-0.182;2024-03-23T10:51:12;2;1;
81989;PMS5003;71485;51.638;-0.182;2024-03-23T10:53:37;2;2;
81989;PMS5003;71485;51.638;-0.182;2024-03-23T10:56:02;1;1;
81989;PMS5003;71485;51.638;-0.182;2024-03-23T10:58:28;1;1;
81989;PMS5003;71485;51.638;-0.182;2024-03-23T11:00:54;2;2;
81989;PMS5003;71485;51.638;-0.182;2024-03-23T11:05:46;1;1;
81989;PMS5003;71485;51.638;-0.182;2024-03-23T11:08:10;2;0;
81989;PMS5003;71485;51.638;-0.182;2024-03-23T11:10:36;1;1;
81989;PMS5003;71485;51.638;-0.182;2024-03-23T11:15:26;2;2;
81989;PMS5003;71485;51.638;-0.182;2024-03-23T11:18:03;1;1;
81989;PMS5003;71485;51.638;-0.182;2024-03-23T11:20:19;2;2;
81989;PMS5003;71485;51.638;-0.182;2024-03-23T11:22:43;1;1;
81989;PMS5003;71485;51.638;-0.182;2024-03-23T11:25:15;1;1;
81989;PMS5003;71485;51.638;-0.182;2024-03-23T11:27:34;1;1;
81989;PMS5003;71485;51.638;-0.182;2024-03-23T11:32:26;0;0;
81989;PMS5003;71485;51.638;-0.182;2024-03-23T11:34:51;1;1;
81989;PMS5003;71485;51.638;-0.182;2024-03-23T11:37:16;1;1;
81989;PMS5003;71485;51.638;-0.182;2024-03-23T11:39:43;2;2;
81989;PMS5003;71485;51.638;-0.182;2024-03-23T11:42:08;1;1;
81989;PMS5003;71485;51.638;-0.182;2024-03-23T11:44:33;1;1;
81989;PMS5003;71485;51.638;-0.182;2024-03-23T11:49:25;2;1;
81989;PMS5003;71485;51.638;-0.182;2024-03-23T11:51:51;2;2;
81989;PMS5003;71485;51.638;-0.182;2024-03-23T11:54:16;2;1;
81989;PMS5003;71485;51.638;-0.182;2024-03-23T11:59:06;3;2;
81989;PMS5003;71485;51.638;-0.182;2024-03-23T12:01:32;1;1;
81989;PMS5003;71485;51.638;-0.182;2024-03-23T12:03:59;1;0;
81989;PMS5003;71485;51.638;-0.182;2024-03-23T12:06:24;1;1;
81989;PMS5003;71485;51.638;-0.182;2024-03-23T12:08:49;1;1;
81989;PMS5003;71485;51.638;-0.182;2024-03-23T12:11:16;1;1;
81989;PMS5003;71485;51.638;-0.182;2024-03-23T12:13:40;1;1;
81989;PMS5003;71485;51.638;-0.182;2024-03-23T12:16:09;1;1;
81989;PMS5003;71485;51.638;-0.182;2024-03-23T12:18:31;0;0;
81989;PMS5003;71485;51.638;-0.182;2024-03-23T12:20:57;0;0;
81989;PMS5003;71485;51.638;-0.182;2024-03-23T12:23:22;2;2;
81989;PMS5003;71485;51.638;-0.182;2024-03-23T12:25:48;29;26;
81989;PMS5003;71485;51.638;-0.182;2024-03-23T12:28:19;65;61;
81989;PMS5003;71485;51.638;-0.182;2024-03-23T12:30:44;135;120;
81989;PMS5003;71485;51.638;-0.182;2024-03-23T12:33:05;110;101;
81989;PMS5003;71485;51.638;-0.182;2024-03-23T12:35:34;117;110;
81989;PMS5003;71485;51.638;-0.182;2024-03-23T12:37:55;139;121;
81989;PMS5003;71485;51.638;-0.182;2024-03-23T12:40:22;118;113;
81989;PMS5003;71485;51.638;-0.182;2024-03-23T12:42:47;123;110;
81989;PMS5003;71485;51.638;-0.182;2024-03-23T12:45:12;102;99;
81989;PMS5003;71485;51.638;-0.182;2024-03-23T12:47:39;106;96;
81989;PMS5003;71485;51.638;-0.182;2024-03-23T12:50:04;110;102;
81989;PMS5003;71485;51.638;-0.182;2024-03-23T12:52:30;100;92;
81989;PMS5003;71485;51.638;-0.182;2024-03-23T12:54:56;101;97;
81989;PMS5003;71485;51.638;-0.182;2024-03-23T12:57:19;109;102;
81989;PMS5003;71485;51.638;-0.182;2024-03-23T12:59:44;95;89;
81989;PMS5003;71485;51.638;-0.182;2024-03-23T13:02:10;115;100;
81989;PMS5003;71485;51.638;-0.182;2024-03-23T13:04:40;122;111;
81989;PMS5003;71485;51.638;-0.182;2024-03-23T13:07:02;123;114;
81989;PMS5003;71485;51.638;-0.182;2024-03-23T13:09:26;119;113;
81989;PMS5003;71485;51.638;-0.182;2024-03-23T13:11:53;122;112;
81989;PMS5003;71485;51.638;-0.182;2024-03-23T13:14:17;124;110;
81989;PMS5003;71485;51.638;-0.182;2024-03-23T13:16:43;99;96;
81989;PMS5003;71485;51.638;-0.182;2024-03-23T13:19:09;96;91;
81989;PMS5003;71485;51.638;-0.182;2024-03-23T13:21:34;107;103;
81989;PMS5003;71485;51.638;-0.182;2024-03-23T13:24:00;94;86;
81989;PMS5003;71485;51.638;-0.182;2024-03-23T13:26:26;93;90;
81989;PMS5003;71485;51.638;-0.182;2024-03-23T13:28:53;90;84;
81989;PMS5003;71485;51.638;-0.182;2024-03-23T13:31:18;88;82;
81989;PMS5003;71485;51.638;-0.182;2024-03-23T13:33:43;86;82;
81989;PMS5003;71485;51.638;-0.182;2024-03-23T13:36:08;76;72;
81989;PMS5003;71485;51.638;-0.182;2024-03-23T13:38:34;78;72;
81989;PMS5003;71485;51.638;-0.182;2024-03-23T13:40:59;71;66;
81989;PMS5003;71485;51.638;-0.182;2024-03-23T13:43:25;75;70;
81989;PMS5003;71485;51.638;-0.182;2024-03-23T13:45:51;68;63;
81989;PMS5003;71485;51.638;-0.182;2024-03-23T13:48:17;60;59;
81989;PMS5003;71485;51.638;-0.182;2024-03-23T13:50:42;61;52;
81989;PMS5003;71485;51.638;-0.182;2024-03-23T13:53:07;53;52;
81989;PMS5003;71485;51.638;-0.182;2024-03-23T13:55:32;56;52;
81989;PMS5003;71485;51.638;-0.182;2024-03-23T13:57:57;56;53;
81989;PMS5003;71485;51.638;-0.182;2024-03-23T14:00:22;53;50;
81989;PMS5003;71485;51.638;-0.182;2024-03-23T14:02:48;49;48;
81989;PMS5003;71485;51.638;-0.182;2024-03-23T14:05:15;43;43;
81989;PMS5003;71485;51.638;-0.182;2024-03-23T14:07:39;48;45;
81989;PMS5003;71485;51.638;-0.182;2024-03-23T14:10:10;37;35;
81989;PMS5003;71485;51.638;-0.182;2024-03-23T14:12:31;39;38;
81989;PMS5003;71485;51.638;-0.182;2024-03-23T14:14:55;41;38;
81989;PMS5003;71485;51.638;-0.182;2024-03-23T14:17:21;39;38;
81989;PMS5003;71485;51.638;-0.182;2024-03-23T14:19:47;35;32;
81989;PMS5003;71485;51.638;-0.182;2024-03-23T14:22:11;35;32;
81989;PMS5003;71485;51.638;-0.182;2024-03-23T14:24:39;36;34;
81989;PMS5003;71485;51.638;-0.182;2024-03-23T14:27:03;31;29;
81989;PMS5003;71485;51.638;-0.182;2024-03-23T14:29:28;31;29;
81989;PMS5003;71485;51.638;-0.182;2024-03-23T14:31:55;34;30;
81989;PMS5003;71485;51.638;-0.182;2024-03-23T14:34:18;28;28;
81989;PMS5003;71485;51.638;-0.182;2024-03-23T14:36:44;31;30;
81989;PMS5003;71485;51.638;-0.182;2024-03-23T14:39:10;29;27;
81989;PMS5003;71485;51.638;-0.182;2024-03-23T14:41:40;23;23;
81989;PMS5003;71485;51.638;-0.182;2024-03-23T14:44:01;22;21;
81989;PMS5003;71485;51.638;-0.182;2024-03-23T14:46:27;20;19;
81989;PMS5003;71485;51.638;-0.182;2024-03-23T14:48:52;21;21;
81989;PMS5003;71485;51.638;-0.182;2024-03-23T14:51:18;20;20;
81989;PMS5003;71485;51.638;-0.182;2024-03-23T14:53:45;20;19;
81989;PMS5003;71485;51.638;-0.182;2024-03-23T14:56:08;20;18;
81989;PMS5003;71485;51.638;-0.182;2024-03-23T14:58:34;16;16;
81989;PMS5003;71485;51.638;-0.182;2024-03-23T15:01:00;15;14;
81989;PMS5003;71485;51.638;-0.182;2024-03-23T15:03:27;20;19;
81989;PMS5003;71485;51.638;-0.182;2024-03-23T15:05:52;16;15;
81989;PMS5003;71485;51.638;-0.182;2024-03-23T15:08:16;16;14;
81989;PMS5003;71485;51.638;-0.182;2024-03-23T15:10:42;14;14;
81989;PMS5003;71485;51.638;-0.182;2024-03-23T15:13:08;17;17;
81989;PMS5003;71485;51.638;-0.182;2024-03-23T15:15:37;13;13;
81989;PMS5003;71485;51.638;-0.182;2024-03-23T15:17:58;12;12;
81989;PMS5003;71485;51.638;-0.182;2024-03-23T15:20:24;12;12;
81989;PMS5003;71485;51.638;-0.182;2024-03-23T15:22:52;13;11;
81989;PMS5003;71485;51.638;-0.182;2024-03-23T15:25:17;12;11;
81989;PMS5003;71485;51.638;-0.182;2024-03-23T15:27:40;12;12;
81989;PMS5003;71485;51.638;-0.182;2024-03-23T15:30:07;10;9;
81989;PMS5003;71485;51.638;-0.182;2024-03-23T15:32:32;10;10;
81989;PMS5003;71485;51.638;-0.182;2024-03-23T15:34:58;8;8;
81989;PMS5003;71485;51.638;-0.182;2024-03-23T15:37:23;10;9;
81989;PMS5003;71485;51.638;-0.182;2024-03-23T15:39:51;8;7;
81989;PMS5003;71485;51.638;-0.182;2024-03-23T15:42:14;7;7;
81989;PMS5003;71485;51.638;-0.182;2024-03-23T15:44:39;5;5;
81989;PMS5003;71485;51.638;-0.182;2024-03-23T15:47:06;8;8;
81989;PMS5003;71485;51.638;-0.182;2024-03-23T15:49:31;7;7;
81989;PMS5003;71485;51.638;-0.182;2024-03-23T15:54:23;6;5;
81989;PMS5003;71485;51.638;-0.182;2024-03-23T15:56:47;8;8;
81989;PMS5003;71485;51.638;-0.182;2024-03-23T15:59:13;8;7;
81989;PMS5003;71485;51.638;-0.182;2024-03-23T16:01:39;5;5;
81989;PMS5003;71485;51.638;-0.182;2024-03-23T16:04:06;6;6;
81989;PMS5003;71485;51.638;-0.182;2024-03-23T16:06:30;6;6;
81989;PMS5003;71485;51.638;-0.182;2024-03-23T16:08:55;5;5;
81989;PMS5003;71485;51.638;-0.182;2024-03-23T16:11:21;6;5;
81989;PMS5003;71485;51.638;-0.182;2024-03-23T16:13:48;5;5;
81989;PMS5003;71485;51.638;-0.182;2024-03-23T16:16:12;6;5;
81989;PMS5003;71485;51.638;-0.182;2024-03-23T16:18:39;4;4;
81989;PMS5003;71485;51.638;-0.182;2024-03-23T16:21:03;3;3;
81989;PMS5003;71485;51.638;-0.182;2024-03-23T16:23:29;4;4;
81989;PMS5003;71485;51.638;-0.182;2024-03-23T16:25:55;4;4;
81989;PMS5003;71485;51.638;-0.182;2024-03-23T16:28:20;5;4;
81989;PMS5003;71485;51.638;-0.182;2024-03-23T16:33:11;4;4;
81989;PMS5003;71485;51.638;-0.182;2024-03-23T16:35:38;4;3;
81989;PMS5003;71485;51.638;-0.182;2024-03-23T16:38:02;4;3;
81989;PMS5003;71485;51.638;-0.182;2024-03-23T16:40:29;2;2;
81989;PMS5003;71485;51.638;-0.182;2024-03-23T16:42:53;3;3;
81989;PMS5003;71485;51.638;-0.182;2024-03-23T16:45:19;4;3;
81989;PMS5003;71485;51.638;-0.182;2024-03-23T16:47:45;4;4;
81989;PMS5003;71485;51.638;-0.182;2024-03-23T16:50:15;2;2;
81989;PMS5003;71485;51.638;-0.182;2024-03-23T16:52:36;3;3;
81989;PMS5003;71485;51.638;-0.182;2024-03-23T16:55:02;4;3;
81989;PMS5003;71485;51.638;-0.182;2024-03-23T16:57:26;3;3;
81989;PMS5003;71485;51.638;-0.182;2024-03-23T16:59:52;3;2;
81989;PMS5003;71485;51.638;-0.182;2024-03-23T17:02:18;2;2;
81989;PMS5003;71485;51.638;-0.182;2024-03-23T17:04:47;3;3;
81989;PMS5003;71485;51.638;-0.182;2024-03-23T17:07:09;2;2;
81989;PMS5003;71485;51.638;-0.182;2024-03-23T17:09:35;1;1;
81989;PMS5003;71485;51.638;-0.182;2024-03-23T17:12:00;4;3;
81989;PMS5003;71485;51.638;-0.182;2024-03-23T17:14:26;3;3;
81989;PMS5003;71485;51.638;-0.182;2024-03-23T17:16:51;3;3;
81989;PMS5003;71485;51.638;-0.182;2024-03-23T17:19:17;2;1;
81989;PMS5003;71485;51.638;-0.182;2024-03-23T17:21:42;3;3;
81989;PMS5003;71485;51.638;-0.182;2024-03-23T17:24:08;4;4;